Terminal Aerodrome Forecast
Issued by NWS

Home | Current Version | Previous Version | Text Only | Print | Product List | Glossary On
Versions: 1 2 3 4 5 6 7 8 9 10 11 12 13 14 15 16 17 18 19 20 21 22 23 24 25 26 27 28 29 30 31 32 33 34 35 36 37 38
000
FTUS43 KGRR 171740
TAFBTL
TAF
KBTL 171740Z 1718/1818 12005KT 2SM -SN BR OVC008
     FM172200 VRB03KT 3SM -SN OVC010
     FM180200 28005KT P6SM OVC015
     FM181200 33006KT P6SM OVC025=

USA.gov is the U.S. government's official web portal to all federal, state and local government web resources and services.